createdAt,value
2023-03-26T00:01:36.876Z,99969.25
2023-03-26T00:04:39.845Z,99938.56
2023-03-26T00:07:42.452Z,99926.44
2023-03-26T00:10:45.027Z,99940.94
2023-03-26T00:13:47.770Z,99931.59
2023-03-26T00:16:49.672Z,99943.16
2023-03-26T00:19:53.672Z,99937.91
2023-03-26T00:22:57.884Z,99948.31
2023-03-26T00:26:00.861Z,99948.72
2023-03-26T00:29:04.164Z,99941.53
2023-03-26T00:32:06.499Z,99955.47
2023-03-26T00:35:08.759Z,99955.87
2023-03-26T00:38:10.734Z,99959.53
2023-03-26T00:41:18.075Z,99964.22
2023-03-26T00:44:20.809Z,99958.00
2023-03-26T00:47:23.224Z,99963.97
2023-03-26T00:50:25.868Z,99989.72
2023-03-26T00:53:27.669Z,99998.53
2023-03-26T00:56:29.536Z,100023.06
2023-03-26T00:59:31.909Z,100018.44
2023-03-26T01:02:33.798Z,100042.47
2023-03-26T01:05:43.180Z,100036.22
2023-03-26T01:08:47.343Z,100021.78
2023-03-26T01:11:49.915Z,100017.00
2023-03-26T01:14:54.238Z,100020.37
2023-03-26T01:17:58.150Z,100001.78
2023-03-26T01:21:09.351Z,99991.81
2023-03-26T01:24:11.822Z,99986.94
2023-03-26T01:27:28.978Z,99988.31
2023-03-26T01:30:42.273Z,99987.16
2023-03-26T01:33:49.580Z,99996.59
2023-03-26T01:36:57.907Z,99998.69
2023-03-26T01:40:14.879Z,100009.25
2023-03-26T01:43:26.206Z,100023.44
2023-03-26T01:46:28.950Z,100038.22
2023-03-26T01:49:31.450Z,100057.69
2023-03-26T01:52:34.409Z,100056.03
2023-03-26T01:55:50.629Z,100064.72
2023-03-26T01:58:52.365Z,100068.59
2023-03-26T02:02:17.389Z,100054.22
2023-03-26T02:05:28.650Z,100070.28
2023-03-26T02:08:37.601Z,100079.28
2023-03-26T02:11:40.801Z,100079.72
2023-03-26T02:14:43.819Z,100068.78
2023-03-26T02:17:46.993Z,100077.16
2023-03-26T02:20:49.044Z,100063.03
2023-03-26T02:23:58.108Z,100061.59
2023-03-26T02:27:02.246Z,100054.75
2023-03-26T02:30:08.495Z,100039.00
2023-03-26T02:33:15.416Z,100044.75
2023-03-26T02:36:18.509Z,100047.16
2023-03-26T02:39:20.896Z,100033.59
2023-03-26T02:42:22.784Z,100036.84
2023-03-26T02:45:24.672Z,100021.44
2023-03-26T02:48:27.015Z,100028.31
2023-03-26T02:51:28.882Z,100033.72
2023-03-26T02:54:30.692Z,100025.66
2023-03-26T02:57:32.747Z,100019.13
2023-03-26T03:00:35.332Z,100011.19
2023-03-26T03:03:37.955Z,100008.19
2023-03-26T03:06:40.578Z,100013.50
2023-03-26T03:09:42.694Z,100007.16
2023-03-26T03:12:44.742Z,100016.09
2023-03-26T03:15:47.128Z,100012.50
2023-03-26T03:18:57.887Z,100029.53
2023-03-26T03:22:00.343Z,100017.59
2023-03-26T03:25:03.172Z,100016.91
2023-03-26T03:28:06.167Z,100025.25
2023-03-26T03:31:09.181Z,100020.47
2023-03-26T03:34:11.505Z,100023.00
2023-03-26T03:37:13.366Z,100020.81
2023-03-26T03:40:15.638Z,100025.34
2023-03-26T03:43:17.413Z,100021.88
2023-03-26T03:46:19.223Z,100047.72
2023-03-26T03:49:22.263Z,100027.50
2023-03-26T03:52:24.270Z,100086.91
2023-03-26T03:55:27.705Z,100048.78
2023-03-26T03:58:31.071Z,100053.53
2023-03-26T04:01:33.060Z,100055.56
2023-03-26T04:04:35.005Z,100055.34
2023-03-26T04:07:36.803Z,100052.97
2023-03-26T04:10:39.555Z,100052.25
2023-03-26T04:13:41.566Z,100082.38
2023-03-26T04:16:43.306Z,100045.41
2023-03-26T04:19:45.071Z,100059.00
2023-03-26T04:22:46.894Z,100050.03
2023-03-26T04:25:54.061Z,100051.97
2023-03-26T04:28:59.951Z,100054.66
2023-03-26T04:32:06.784Z,100053.13
2023-03-26T04:35:12.410Z,100045.09
2023-03-26T04:38:16.762Z,100047.09
2023-03-26T04:41:18.731Z,100046.25
2023-03-26T04:44:22.593Z,100055.28
2023-03-26T04:47:24.381Z,100052.34
2023-03-26T04:50:26.787Z,100047.81
2023-03-26T04:53:28.731Z,100045.81
2023-03-26T04:56:56.836Z,100044.00
2023-03-26T04:59:58.832Z,100050.28
2023-03-26T05:03:01.695Z,100048.72
2023-03-26T05:06:03.620Z,100044.84
2023-03-26T05:09:06.018Z,100031.31
2023-03-26T05:12:08.002Z,100036.56
2023-03-26T05:15:11.575Z,100050.28
2023-03-26T05:18:13.722Z,100050.50
2023-03-26T05:21:15.576Z,100031.69
2023-03-26T05:24:18.826Z,100030.44
2023-03-26T05:27:20.594Z,100021.16
2023-03-26T05:30:22.989Z,100028.53
2023-03-26T05:33:24.929Z,99944.41
2023-03-26T05:36:28.455Z,99847.63
2023-03-26T05:39:30.437Z,99826.16
2023-03-26T05:42:32.272Z,99755.88
2023-03-26T05:45:34.188Z,99771.69
2023-03-26T05:48:36.278Z,99869.53
2023-03-26T05:51:38.106Z,99901.41
2023-03-26T05:54:39.912Z,99933.37
2023-03-26T05:57:42.750Z,99975.53
2023-03-26T06:00:48.866Z,99970.19
2023-03-26T06:03:51.531Z,99949.63
2023-03-26T06:06:54.065Z,99946.94
2023-03-26T06:09:56.364Z,99944.06
2023-03-26T06:12:58.187Z,99940.72
2023-03-26T06:16:00.034Z,99924.09
2023-03-26T06:19:02.356Z,99938.69
2023-03-26T06:22:04.964Z,99921.41
2023-03-26T06:25:07.032Z,99920.19
2023-03-26T06:28:08.817Z,99909.16
2023-03-26T06:31:10.971Z,99905.28
2023-03-26T06:34:13.120Z,99891.66
2023-03-26T06:37:15.676Z,99887.75
2023-03-26T06:40:17.746Z,99885.13
2023-03-26T06:43:19.492Z,99863.13
2023-03-26T06:46:23.455Z,99855.66
2023-03-26T06:49:25.366Z,99828.72
2023-03-26T06:52:28.614Z,99829.34
2023-03-26T06:55:31.355Z,99815.09
2023-03-26T06:58:33.277Z,99800.72
2023-03-26T07:01:35.173Z,99796.38
2023-03-26T07:04:37.388Z,99795.87
2023-03-26T07:07:45.995Z,99800.63
2023-03-26T07:10:48.878Z,99788.13
2023-03-26T07:13:50.875Z,99790.09
2023-03-26T07:16:52.762Z,99783.81
2023-03-26T07:19:54.713Z,99771.00
2023-03-26T07:22:56.806Z,99774.25
2023-03-26T07:25:59.508Z,99768.66
2023-03-26T07:29:28.666Z,99760.88
2023-03-26T07:32:46.926Z,99754.63
2023-03-26T07:35:52.444Z,99784.50
2023-03-26T07:38:54.958Z,99755.34
2023-03-26T07:42:23.115Z,99758.00
2023-03-26T07:45:36.368Z,99773.19
2023-03-26T07:48:43.435Z,99793.91
2023-03-26T07:51:48.873Z,99785.41
2023-03-26T07:54:51.092Z,99787.66
2023-03-26T07:58:20.857Z,99794.69
2023-03-26T08:01:45.108Z,99791.03
2023-03-26T08:04:59.765Z,99801.31
2023-03-26T08:08:27.671Z,99790.41
2023-03-26T08:11:49.898Z,99794.47
2023-03-26T08:15:09.290Z,99815.59
2023-03-26T08:18:27.421Z,99814.12
2023-03-26T08:21:44.185Z,99814.62
2023-03-26T08:25:24.685Z,99811.94
2023-03-26T08:28:35.145Z,99828.13
2023-03-26T08:31:40.021Z,99823.91
2023-03-26T08:34:42.621Z,99832.34
2023-03-26T08:37:45.357Z,99825.53
2023-03-26T08:40:53.219Z,99833.63
2023-03-26T08:44:32.565Z,99828.72
2023-03-26T08:48:00.558Z,99837.12
2023-03-26T08:51:48.303Z,99840.28
2023-03-26T08:55:08.685Z,99818.06
2023-03-26T08:58:49.333Z,99818.03
2023-03-26T09:02:14.632Z,99807.59
2023-03-26T09:05:36.272Z,99816.81
2023-03-26T09:08:59.133Z,99804.22
2023-03-26T09:12:37.971Z,99809.13
2023-03-26T09:15:58.264Z,99788.66
2023-03-26T09:19:24.601Z,99788.75
2023-03-26T09:22:58.800Z,99787.13
2023-03-26T09:26:07.288Z,99766.72
2023-03-26T09:29:27.438Z,99786.53
2023-03-26T09:32:54.562Z,99770.06
2023-03-26T09:36:19.049Z,99772.31
2023-03-26T09:39:42.802Z,99773.59
2023-03-26T09:42:47.529Z,99764.94
2023-03-26T09:45:52.524Z,99778.38
2023-03-26T09:49:14.189Z,99773.00
2023-03-26T09:52:46.531Z,99765.06
2023-03-26T09:56:20.907Z,99759.94
2023-03-26T09:59:41.228Z,99767.78
2023-03-26T10:03:36.099Z,99750.31
2023-03-26T10:06:47.097Z,99755.44
2023-03-26T10:09:57.236Z,99751.72
2023-03-26T10:13:14.938Z,99764.09
2023-03-26T10:16:25.942Z,99761.81
2023-03-26T10:19:45.716Z,99715.22
2023-03-26T10:23:04.827Z,99717.00
2023-03-26T10:26:34.689Z,99704.56
2023-03-26T10:30:17.001Z,99699.50
2023-03-26T10:33:40.603Z,99672.28
2023-03-26T10:36:59.646Z,99637.78
2023-03-26T10:40:23.774Z,99659.25
2023-03-26T10:43:34.752Z,99657.87
2023-03-26T10:47:01.184Z,99638.38
2023-03-26T10:50:23.169Z,99630.28
2023-03-26T10:53:47.424Z,99638.22
2023-03-26T10:56:50.380Z,99600.00
2023-03-26T10:59:55.648Z,99604.97
2023-03-26T11:03:12.847Z,99598.47
2023-03-26T11:06:29.866Z,99588.09
2023-03-26T11:09:58.228Z,99570.56
2023-03-26T11:13:06.888Z,99557.28
2023-03-26T11:16:33.188Z,99538.53
2023-03-26T11:19:53.230Z,99533.19
2023-03-26T11:23:20.041Z,99506.25
2023-03-26T11:26:39.391Z,99502.03
2023-03-26T11:29:49.268Z,99515.22
2023-03-26T11:33:06.806Z,99505.69
2023-03-26T11:36:22.801Z,99526.56
2023-03-26T11:39:27.891Z,99532.91
2023-03-26T11:42:30.561Z,99476.09
2023-03-26T11:45:37.365Z,99495.97
2023-03-26T11:48:45.783Z,99467.41
2023-03-26T11:51:48.740Z,99478.13
2023-03-26T11:54:50.723Z,99451.97
2023-03-26T11:57:55.685Z,99414.97
2023-03-26T12:00:59.237Z,99445.31
2023-03-26T12:04:13.586Z,99443.28
2023-03-26T12:07:18.474Z,99429.22
2023-03-26T12:10:38.358Z,99410.91
2023-03-26T12:13:51.162Z,99438.91
2023-03-26T12:17:05.252Z,99430.28
2023-03-26T12:20:25.535Z,99423.13
2023-03-26T12:23:40.993Z,99443.09
2023-03-26T12:26:48.884Z,99397.75
2023-03-26T12:30:12.113Z,99404.56
2023-03-26T12:33:22.181Z,99383.56
2023-03-26T12:36:29.221Z,99394.69
2023-03-26T12:40:08.049Z,99409.72
2023-03-26T12:44:49.470Z,99390.78
2023-03-26T12:47:58.244Z,99411.44
2023-03-26T12:49:52.982Z,99410.09
2023-03-26T12:53:14.887Z,99410.44
2023-03-26T12:56:21.985Z,99406.16
2023-03-26T12:59:42.705Z,99396.16
2023-03-26T13:03:03.278Z,99400.38
2023-03-26T13:06:30.093Z,99398.37
2023-03-26T13:10:00.767Z,99390.44
2023-03-26T13:13:16.960Z,99392.44
2023-03-26T13:16:22.397Z,99381.22
2023-03-26T13:19:43.968Z,99385.31
2023-03-26T13:23:10.632Z,99393.28
2023-03-26T13:26:27.074Z,99370.41
2023-03-26T13:29:41.476Z,99344.97
2023-03-26T13:33:16.006Z,99330.06
2023-03-26T13:36:55.098Z,99341.75
2023-03-26T13:40:09.331Z,99312.44
2023-03-26T13:43:25.410Z,99323.66
2023-03-26T13:46:34.519Z,99346.19
2023-03-26T13:50:16.081Z,99283.81
2023-03-26T13:53:22.850Z,99287.56
2023-03-26T13:56:49.406Z,99261.87
2023-03-26T14:00:00.896Z,99248.53
2023-03-26T14:03:10.576Z,99258.56
2023-03-26T14:06:32.087Z,99223.44
2023-03-26T14:09:46.781Z,99238.63
2023-03-26T14:12:52.651Z,99219.91
2023-03-26T14:15:58.205Z,99227.53
2023-03-26T14:19:23.712Z,99215.84
2023-03-26T14:22:55.617Z,99242.47
2023-03-26T14:26:19.583Z,99233.84
2023-03-26T14:29:59.000Z,99226.06
2023-03-26T14:33:28.150Z,99218.91
2023-03-26T14:37:07.374Z,99202.94
2023-03-26T14:40:16.941Z,99198.19
2023-03-26T14:43:38.473Z,99182.81
2023-03-26T14:46:58.865Z,99195.81
2023-03-26T14:50:03.998Z,99161.16
2023-03-26T14:53:16.350Z,99158.12
2023-03-26T14:56:25.059Z,99151.59
2023-03-26T14:59:35.828Z,99133.19
2023-03-26T15:03:15.850Z,99141.38
2023-03-26T15:06:52.353Z,99112.44
2023-03-26T15:10:22.739Z,99117.53
2023-03-26T15:13:44.936Z,99132.25
2023-03-26T15:17:18.115Z,99097.56
2023-03-26T15:21:07.767Z,99120.72
2023-03-26T15:24:37.105Z,99090.59
2023-03-26T15:27:57.541Z,99104.13
2023-03-26T15:31:10.054Z,99111.63
2023-03-26T15:34:31.136Z,99095.72
2023-03-26T15:38:00.500Z,99106.22
2023-03-26T15:41:23.720Z,99107.03
2023-03-26T15:44:53.123Z,99118.06
2023-03-26T15:48:11.886Z,99124.00
2023-03-26T15:51:27.995Z,99131.59
2023-03-26T15:54:49.356Z,99115.50
2023-03-26T15:58:06.419Z,99105.19
2023-03-26T16:01:19.226Z,99114.66
2023-03-26T16:04:55.814Z,99118.69
2023-03-26T16:08:23.381Z,99132.19
2023-03-26T16:11:48.242Z,99125.53
2023-03-26T16:15:15.582Z,99104.22
2023-03-26T16:18:38.121Z,99109.41
2023-03-26T16:21:46.469Z,99107.66
2023-03-26T16:25:27.913Z,99117.37
2023-03-26T16:28:45.419Z,99108.19
2023-03-26T16:32:10.137Z,99114.00
2023-03-26T16:35:15.621Z,99127.78
2023-03-26T16:38:19.111Z,99121.62
2023-03-26T16:41:25.608Z,99130.53
2023-03-26T16:44:36.876Z,99135.34
2023-03-26T16:48:14.364Z,99131.03
2023-03-26T16:51:50.102Z,99128.97
2023-03-26T16:55:20.928Z,99147.94
2023-03-26T16:58:32.384Z,99143.56
2023-03-26T17:01:48.208Z,99153.56
2023-03-26T17:04:55.857Z,99160.59
2023-03-26T17:08:36.400Z,99150.72
2023-03-26T17:11:57.509Z,99146.06
2023-03-26T17:15:18.314Z,99156.31
2023-03-26T17:18:42.540Z,99160.63
2023-03-26T17:22:04.689Z,99158.81
2023-03-26T17:25:39.468Z,99162.41
2023-03-26T17:28:54.846Z,99162.16
2023-03-26T17:32:08.527Z,99167.47
2023-03-26T17:35:13.948Z,99173.75
2023-03-26T17:38:17.008Z,99171.25
2023-03-26T17:41:51.362Z,99169.38
2023-03-26T17:45:36.098Z,99182.88
2023-03-26T17:48:40.852Z,99183.03
2023-03-26T17:51:47.611Z,99197.19
2023-03-26T17:54:52.098Z,99204.16
2023-03-26T17:58:03.109Z,99204.16
2023-03-26T18:01:24.937Z,99224.94
2023-03-26T18:04:31.489Z,99218.72
2023-03-26T18:07:36.652Z,99230.63
2023-03-26T18:10:47.108Z,99215.34
2023-03-26T18:14:10.534Z,99222.25
2023-03-26T18:17:12.791Z,99221.56
2023-03-26T18:20:27.436Z,99220.84
2023-03-26T18:23:41.147Z,99213.34
2023-03-26T18:26:50.916Z,99206.81
2023-03-26T18:30:02.467Z,99216.72
2023-03-26T18:33:15.317Z,99207.25
2023-03-26T18:36:18.654Z,99208.59
2023-03-26T18:39:20.805Z,99203.41
2023-03-26T18:42:23.886Z,99198.03
2023-03-26T18:45:34.960Z,99203.13
2023-03-26T18:48:37.235Z,99197.34
2023-03-26T18:51:54.090Z,99192.22
2023-03-26T18:54:59.935Z,99196.16
2023-03-26T18:58:10.876Z,99193.47
2023-03-26T19:01:25.012Z,99193.19
2023-03-26T19:04:33.141Z,99178.31
2023-03-26T19:07:36.008Z,99184.25
2023-03-26T19:10:38.752Z,99185.37
2023-03-26T19:13:43.707Z,99178.00
2023-03-26T19:16:56.308Z,99158.19
2023-03-26T19:20:17.794Z,99121.88
2023-03-26T19:23:23.775Z,99117.09
2023-03-26T19:26:25.923Z,99111.56
2023-03-26T19:29:31.878Z,99110.31
2023-03-26T19:32:35.066Z,99087.69
2023-03-26T19:35:38.901Z,99089.25
2023-03-26T19:38:55.774Z,99093.63
2023-03-26T19:41:57.915Z,99082.88
2023-03-26T19:45:01.920Z,99079.47
2023-03-26T19:48:14.983Z,99086.84
2023-03-26T19:51:23.445Z,99070.84
2023-03-26T19:54:25.745Z,99071.56
2023-03-26T19:57:32.259Z,99061.09
2023-03-26T20:00:38.627Z,99064.19
2023-03-26T20:03:42.988Z,99070.13
2023-03-26T20:06:49.148Z,99066.16
2023-03-26T20:09:52.617Z,99048.34
2023-03-26T20:12:54.820Z,99043.53
2023-03-26T20:16:27.487Z,99030.53
2023-03-26T20:19:30.656Z,99026.84
2023-03-26T20:22:32.865Z,99026.00
2023-03-26T20:25:46.462Z,99023.31
2023-03-26T20:28:53.529Z,99027.13
2023-03-26T20:31:56.186Z,99018.78
2023-03-26T20:34:58.410Z,99003.09
2023-03-26T20:38:00.745Z,98992.19
2023-03-26T20:41:04.531Z,98993.59
2023-03-26T20:44:13.624Z,98981.56
2023-03-26T20:47:16.419Z,98974.47
2023-03-26T20:50:21.945Z,98966.28
2023-03-26T20:53:24.250Z,98967.13
2023-03-26T20:56:27.035Z,98956.50
2023-03-26T20:59:29.054Z,98937.94
2023-03-26T21:02:31.014Z,98946.03
2023-03-26T21:05:35.074Z,98992.25
2023-03-26T21:08:38.473Z,99020.94
2023-03-26T21:12:00.643Z,99031.72
2023-03-26T21:15:09.944Z,99061.47
2023-03-26T21:18:15.817Z,99088.53
2023-03-26T21:21:39.001Z,99093.06
2023-03-26T21:24:57.209Z,99115.81
2023-03-26T21:28:28.925Z,99141.69
2023-03-26T21:31:40.829Z,99147.69
2023-03-26T21:34:55.424Z,99137.78
2023-03-26T21:38:00.390Z,99127.97
2023-03-26T21:41:03.527Z,99125.84
2023-03-26T21:44:05.929Z,99117.75
2023-03-26T21:47:09.947Z,99109.69
2023-03-26T21:50:18.116Z,99115.69
2023-03-26T21:53:21.991Z,99099.88
2023-03-26T21:56:35.969Z,99097.59
2023-03-26T22:00:18.678Z,99076.84
2023-03-26T22:04:05.294Z,99077.22
2023-03-26T22:07:14.727Z,99056.37
2023-03-26T22:10:17.870Z,99060.31
2023-03-26T22:13:19.800Z,99032.09
2023-03-26T22:16:25.243Z,99038.31
2023-03-26T22:19:28.564Z,99073.63
2023-03-26T22:22:32.198Z,99054.31
2023-03-26T22:25:33.919Z,99049.81
2023-03-26T22:28:36.398Z,99057.75
2023-03-26T22:31:39.351Z,99050.13
2023-03-26T22:34:41.490Z,99053.53
2023-03-26T22:37:43.335Z,99049.16
2023-03-26T22:40:45.153Z,99054.47
2023-03-26T22:43:47.586Z,99065.13
2023-03-26T22:46:51.467Z,99042.91
2023-03-26T22:49:53.654Z,99040.69
2023-03-26T22:52:56.339Z,99049.59
2023-03-26T22:55:59.892Z,99076.47
2023-03-26T22:59:02.034Z,99060.12
2023-03-26T23:02:04.291Z,99039.88
2023-03-26T23:05:06.501Z,99033.66
2023-03-26T23:08:08.254Z,99041.66
2023-03-26T23:11:10.110Z,99038.81
2023-03-26T23:14:12.029Z,99012.75
2023-03-26T23:17:14.733Z,99013.62
2023-03-26T23:20:16.625Z,98994.09
2023-03-26T23:23:38.223Z,98982.25
2023-03-26T23:26:49.476Z,98966.44
2023-03-26T23:29:53.405Z,98974.34
2023-03-26T23:32:57.183Z,98958.03
2023-03-26T23:36:00.613Z,98949.00
2023-03-26T23:39:02.443Z,98960.28
2023-03-26T23:42:04.562Z,98965.72
2023-03-26T23:45:08.684Z,98958.97
2023-03-26T23:48:11.002Z,98976.84
2023-03-26T23:51:12.845Z,98973.47
2023-03-26T23:54:15.224Z,98958.72
2023-03-26T23:57:18.438Z,98956.63
